Etusivu
METAR-TAF:

METAR-TAF

Lentoasemat :

Skellefteån lentoasema

Skellefteå, Ruotsi

Leveyspiiri: 64-38N, Pituuspiiri: 021-05E, korkeus merenpinnasta: 49 m

Tämänhetkinen sää

Tämä raportti tehtiin 34 minuuttia sitten, kello 15.20 UTC
Tuuli 5 kn lännestä/lounaasta
Lämpötila 20°C
Kosteus 88%
Ilmanpaine 1010 hPa
Näkyvyys 10 km tai enemmän

METAR: ESNS 231520Z AUTO 25005KT 9999 FEW051/// OVC110/// 20/18 Q1010

Aika: 17:54 (15:54 UTC)

Sääennuste

Tämä raportti tehtiin 1 tunti ja 24 minuuttia sitten, kello 14.30 UTC
Ennuste voimassa 23. päivästä klo 15 UTC - 23. päivään klo 19 UTC
Tuuli 3 kn eri suunnista
Näkyvyys 10 km tai enemmän
ei pilviä alle 1500 m:ssä eikä cumulonimbus-pilviä
Ajoittain
23. päivästä klo 15 UTC - 23. päivään klo 19 UTC
Tuuli 10 kn pohjoisesta
Hajonneita pilviä 5000 ft:n korkeudessa, Cumulonimbus.
ukkosmyrsky, vesikuuroja

TAF: ESNS 231430Z 2315/2319 VRB03KT CAVOK TEMPO 2315/2319 35010KT TS SHRA BKN050CB

Säähavainnot ja -ennusteet yli 4000 lentoasemalta (METAR- ja TAF-raportit).

Käytössä olevat sääasemat on merkitty karttaan keltaisilla ja punaisilla pisteillä.

Aseta hiiri pisteen päälle nähdäksesi sääaseman nimen.

Klikkaa sitten nähdäksesi säähavainnot ja -ennusteet.

Kartan vaihtaminen: klikkaa mustalla rastilla varustettuja vihreitä pisteitä, niin voit zoomata sisään; viivalla varustettua vihreää pistettä, niin voit zoomata ulos tai vihreitä nuolia, niin pääset viereisille kartoille.


METAR-TAF: